Time;durP1;ratioP1;P1;durP2;ratioP2;P2;SDS_P1;SDS_P2;PMS_P1;PMS_P2;Temp;Humidity;BMP_temperature;BMP_pressure;BME280_temperature;BME280_humidity;BME280_pressure;Samples;Min_cycle;Max_cycle;Signal;HPM_P1;HPM_P2
2021/03/31 00:01:54;;;;;;;10.83;9.30;;;;;;;7.11;60.08;95899.84;5019504;28;21212;-80
2021/03/31 00:04:21;;;;;;;13.37;7.97;;;;;;;7.11;60.06;95897.22;5053282;28;20493;-81
2021/03/31 00:06:48;;;;;;;11.90;7.63;;;;;;;7.12;59.59;95898.91;5054520;28;20425;-81
2021/03/31 00:09:15;;;;;;;12.97;8.83;;;;;;;7.11;59.84;95892.00;5054033;28;20433;-80
2021/03/31 00:11:41;;;;;;;12.27;8.63;;;;;;;7.07;59.42;95888.72;5054340;28;20430;-81
2021/03/31 00:14:08;;;;;;;13.40;9.50;;;;;;;7.05;59.26;95887.97;5053859;28;20457;-81
2021/03/31 00:16:34;;;;;;;16.13;9.43;;;;;;;7.10;59.73;95888.56;5052621;28;20471;-81
2021/03/31 00:19:01;;;;;;;11.43;8.50;;;;;;;7.10;58.93;95892.94;4970208;28;20445;-80
2021/03/31 00:21:28;;;;;;;11.47;8.37;;;;;;;7.04;59.81;95882.84;5053787;28;20473;-81
2021/03/31 00:23:54;;;;;;;10.80;7.13;;;;;;;7.02;59.64;95876.88;5053472;28;20457;-81
2021/03/31 00:26:20;;;;;;;8.37;7.53;;;;;;;7.00;59.93;95879.56;5018980;28;20433;-81
2021/03/31 00:28:47;;;;;;;13.63;8.60;;;;;;;7.00;59.96;95883.94;4969889;28;20491;-81
2021/03/31 00:31:14;;;;;;;13.37;8.43;;;;;;;6.96;59.41;95877.22;5053568;28;20429;-80
2021/03/31 00:33:40;;;;;;;8.07;7.10;;;;;;;6.91;58.74;95880.03;5053451;28;20798;-81
2021/03/31 00:36:07;;;;;;;12.90;9.13;;;;;;;6.88;59.49;95863.72;5054203;28;20452;-81
2021/03/31 00:38:35;;;;;;;12.40;7.80;;;;;;;6.92;59.24;95880.88;5053829;28;20456;-80
2021/03/31 00:41:03;;;;;;;12.63;8.50;;;;;;;6.95;59.32;95876.38;5034753;28;20487;-81
2021/03/31 00:43:30;;;;;;;11.63;7.80;;;;;;;7.03;59.39;95881.16;5035239;28;20434;-81
2021/03/31 00:45:56;;;;;;;10.97;8.73;;;;;;;7.01;58.92;95876.03;5053153;28;20463;-80
2021/03/31 00:48:23;;;;;;;9.83;7.73;;;;;;;6.97;58.98;95873.69;5053198;28;20445;-81
2021/03/31 00:50:51;;;;;;;12.60;7.60;;;;;;;6.93;59.82;95869.53;5053734;28;20434;-80
2021/03/31 00:53:21;;;;;;;12.23;8.37;;;;;;;6.91;59.21;95869.59;5035124;28;20444;-81
2021/03/31 00:55:49;;;;;;;11.80;7.87;;;;;;;6.81;59.91;95863.22;5053157;28;20429;-80
2021/03/31 00:58:15;;;;;;;16.03;8.67;;;;;;;6.77;59.54;95872.13;5053116;28;20827;-80
2021/03/31 01:00:42;;;;;;;15.27;8.60;;;;;;;6.72;60.10;95868.94;5053442;28;20470;-80
2021/03/31 01:03:08;;;;;;;10.10;7.53;;;;;;;6.65;60.71;95868.44;5053384;28;20472;-80
2021/03/31 01:05:35;;;;;;;11.57;7.63;;;;;;;6.68;59.96;95862.22;5018369;28;20442;-80
2021/03/31 01:08:01;;;;;;;9.17;7.13;;;;;;;6.65;60.25;95864.97;5053736;28;20440;-81
2021/03/31 01:10:32;;;;;;;7.00;5.70;;;;;;;6.59;59.71;95870.50;5053221;28;20808;-80
2021/03/31 01:13:28;;;;;;;8.97;7.03;;;;;;;6.56;60.23;95868.91;5053268;28;20432;-81
2021/03/31 01:16:02;;;;;;;9.23;7.13;;;;;;;6.56;59.19;95863.69;5054490;28;20451;-80
2021/03/31 01:18:33;;;;;;;8.50;6.67;;;;;;;6.51;59.99;95863.94;5057578;28;20445;-80
2021/03/31 01:21:35;;;;;;;9.60;7.50;;;;;;;6.51;59.68;95874.38;5057028;28;20488;-80
2021/03/31 01:24:43;;;;;;;9.40;7.07;;;;;;;6.52;60.19;95870.00;5057113;28;20440;-81
2021/03/31 01:27:14;;;;;;;8.90;8.00;;;;;;;6.56;59.72;95866.31;4995517;28;20454;-80
2021/03/31 01:30:07;;;;;;;9.00;6.70;;;;;;;6.56;60.61;95865.47;4995646;28;20439;-80
2021/03/31 01:33:12;;;;;;;9.60;8.00;;;;;;;6.58;60.17;95861.00;4937512;29;20501;-80
2021/03/31 01:35:42;;;;;;;10.47;9.37;;;;;;;6.58;60.46;95861.84;4862335;29;20454;-80
2021/03/31 01:38:13;;;;;;;11.23;6.80;;;;;;;6.55;60.12;95866.38;4862067;29;20538;-81
2021/03/31 01:40:47;;;;;;;9.57;7.50;;;;;;;6.47;60.26;95870.25;4862051;29;20490;-80
2021/03/31 01:43:17;;;;;;;8.43;7.03;;;;;;;6.51;60.62;95865.72;4861841;29;20481;-81
2021/03/31 01:45:48;;;;;;;8.70;7.27;;;;;;;6.49;60.49;95868.41;4831350;29;20446;-80
2021/03/31 01:48:18;;;;;;;10.60;8.13;;;;;;;6.53;59.70;95871.69;4862124;29;20430;-81
2021/03/31 01:50:49;;;;;;;10.50;7.30;;;;;;;6.53;59.94;95874.28;4862127;29;20462;-80
2021/03/31 01:53:17;;;;;;;11.00;7.53;;;;;;;6.45;59.78;95874.72;4862013;29;20514;-81
2021/03/31 01:59:05;;;;;;;13.43;7.67;;;;;;;6.34;60.27;95869.19;4861430;29;20490;-81
2021/03/31 02:01:33;;;;;;;9.93;7.07;;;;;;;6.35;61.55;95872.66;4861481;29;20482;-80
2021/03/31 02:04:00;;;;;;;13.60;8.33;;;;;;;6.33;61.52;95872.72;4884674;29;20460;-80
2021/03/31 02:06:31;;;;;;;8.80;7.10;;;;;;;6.28;61.25;95872.13;4898647;29;20444;-81
2021/03/31 02:08:59;;;;;;;8.00;7.07;;;;;;;6.25;61.28;95867.09;4930805;28;20441;-80
2021/03/31 02:11:26;;;;;;;12.13;8.43;;;;;;;6.24;62.38;95874.97;5004184;28;20480;-81
2021/03/31 02:13:53;;;;;;;8.03;7.23;;;;;;;6.26;61.97;95875.75;5056026;28;20441;-80
2021/03/31 02:16:19;;;;;;;8.90;7.10;;;;;;;6.22;61.88;95868.09;5055520;28;20786;-80
2021/03/31 02:18:47;;;;;;;9.80;8.27;;;;;;;6.18;61.76;95863.97;5055837;28;20466;-80
2021/03/31 02:21:14;;;;;;;10.70;7.03;;;;;;;6.16;62.18;95870.19;5020719;28;20488;-81
2021/03/31 02:23:42;;;;;;;11.13;8.10;;;;;;;6.12;62.11;95868.66;5056183;28;20456;-80
2021/03/31 02:26:09;;;;;;;20.17;7.97;;;;;;;6.12;62.14;95876.47;5055839;28;20525;-81
2021/03/31 02:28:35;;;;;;;10.00;7.50;;;;;;;6.10;62.00;95868.72;5054574;28;20433;-80
2021/03/31 02:31:04;;;;;;;9.97;6.83;;;;;;;6.10;61.48;95860.06;5056097;28;20460;-80
2021/03/31 02:33:31;;;;;;;10.10;7.53;;;;;;;6.02;62.29;95857.84;5055697;28;20422;-80
2021/03/31 02:35:58;;;;;;;7.43;6.63;;;;;;;5.96;62.69;95858.16;5055665;28;20429;-81
2021/03/31 02:38:25;;;;;;;14.90;8.80;;;;;;;5.89;62.71;95852.44;5055452;28;20456;-81
2021/03/31 02:47:40;;;;;;;12.63;7.80;;;;;;;5.68;63.95;95853.47;5055249;28;20533;-81
2021/03/31 02:50:08;;;;;;;14.00;7.83;;;;;;;5.69;63.16;95856.91;5055613;28;20434;-81
2021/03/31 02:52:36;;;;;;;10.10;7.20;;;;;;;5.62;63.60;95843.38;5055144;28;20445;-80
2021/03/31 02:55:05;;;;;;;14.23;7.83;;;;;;;5.59;64.01;95848.75;5055868;28;20445;-80
2021/03/31 02:57:32;;;;;;;8.93;6.90;;;;;;;5.56;63.46;95849.75;5055447;28;20441;-80
2021/03/31 02:59:58;;;;;;;9.90;8.43;;;;;;;5.50;64.00;95850.03;5055327;28;20500;-81
2021/03/31 03:02:25;;;;;;;15.80;8.20;;;;;;;5.47;64.04;95850.16;5054884;28;20484;-80
2021/03/31 03:04:52;;;;;;;9.50;7.13;;;;;;;5.41;64.53;95847.88;5055191;28;20456;-81
2021/03/31 03:07:19;;;;;;;10.27;7.60;;;;;;;5.51;64.24;95854.34;5020022;28;20457;-80
2021/03/31 03:09:47;;;;;;;12.00;8.57;;;;;;;5.50;64.26;95852.66;5055288;28;20441;-81
2021/03/31 03:12:14;;;;;;;11.80;8.50;;;;;;;5.53;64.30;95857.69;5055766;28;20488;-81
2021/03/31 03:14:43;;;;;;;8.57;7.70;;;;;;;5.57;63.56;95861.00;5054858;28;20446;-80
2021/03/31 03:17:10;;;;;;;8.63;7.47;;;;;;;5.60;63.49;95860.84;5019970;28;20448;-80
2021/03/31 03:19:36;;;;;;;10.57;8.30;;;;;;;5.61;63.69;95859.91;5054613;28;20430;-80
2021/03/31 03:22:04;;;;;;;10.43;8.00;;;;;;;5.57;63.97;95855.78;5055211;28;20442;-80
2021/03/31 03:24:33;;;;;;;13.83;7.83;;;;;;;5.62;62.96;95861.59;5054643;28;20446;-80
2021/03/31 03:26:59;;;;;;;16.23;7.80;;;;;;;5.51;62.73;95856.94;5054621;28;20898;-80
2021/03/31 03:29:26;;;;;;;12.17;7.20;;;;;;;5.58;63.88;95860.91;5054690;28;20452;-81
2021/03/31 03:31:54;;;;;;;13.00;7.83;;;;;;;5.52;63.81;95858.63;5054255;28;20446;-80
2021/03/31 03:34:21;;;;;;;8.87;6.93;;;;;;;5.53;63.58;95855.09;5054203;28;20503;-81
2021/03/31 03:36:48;;;;;;;8.73;7.80;;;;;;;5.55;64.67;95858.47;5054615;28;20446;-80
2021/03/31 03:39:15;;;;;;;8.50;7.30;;;;;;;5.54;64.83;95856.78;5053859;28;20784;-81
2021/03/31 03:41:43;;;;;;;10.30;8.50;;;;;;;5.54;64.54;95848.13;5054077;28;20477;-81
2021/03/31 03:44:09;;;;;;;9.13;7.47;;;;;;;5.58;64.93;95855.72;5054163;28;20859;-80
2021/03/31 03:46:37;;;;;;;12.83;8.70;;;;;;;5.62;64.42;95852.94;5054356;28;20441;-81
2021/03/31 03:49:05;;;;;;;8.20;7.30;;;;;;;5.59;64.33;95844.38;5054162;28;20441;-81
2021/03/31 03:51:32;;;;;;;12.23;8.57;;;;;;;5.59;63.58;95844.38;5054339;28;20425;-81
2021/03/31 03:53:59;;;;;;;11.90;7.67;;;;;;;5.59;63.48;95846.97;5053975;28;21046;-80
2021/03/31 03:56:26;;;;;;;11.10;7.60;;;;;;;5.54;63.19;95846.38;5054127;28;20444;-81
2021/03/31 03:58:52;;;;;;;13.27;8.00;;;;;;;5.62;63.40;95842.53;5054350;28;20468;-81
2021/03/31 04:01:19;;;;;;;13.30;9.43;;;;;;;5.62;63.82;95842.53;5053806;28;20985;-80
2021/03/31 04:03:45;;;;;;;12.07;7.80;;;;;;;5.60;63.72;95855.63;5054565;28;20472;-80
2021/03/31 04:06:13;;;;;;;9.33;7.23;;;;;;;6.83;82.51;95845.72;5054074;28;20430;-78
2021/03/31 04:08:40;;;;;;;9.30;7.00;;;;;;;10.61;66.12;95852.75;5054059;28;20453;-78
2021/03/31 04:11:06;;;;;;;10.50;6.83;;;;;;;11.76;54.42;95854.03;5053381;28;20453;-78
2021/03/31 04:13:34;;;;;;;8.63;7.07;;;;;;;12.62;49.78;95857.16;5052948;28;20481;-77
2021/03/31 04:16:06;;;;;;;12.33;9.00;;;;;;;13.48;46.64;95859.13;5053515;28;20444;-77
2021/03/31 04:18:34;;;;;;;17.17;10.67;;;;;;;14.03;41.53;95851.97;5053797;28;20509;-80
2021/03/31 04:21:02;;;;;;;24.90;15.65;;;;;;;13.18;41.15;95854.53;5052131;28;20460;-79
2021/03/31 04:23:30;;;;;;;30.40;18.60;;;;;;;11.50;44.21;95871.72;5053533;28;20705;-79
2021/03/31 04:25:57;;;;;;;28.20;16.80;;;;;;;10.82;46.07;95867.00;5053744;28;20836;-79
2021/03/31 04:28:25;;;;;;;30.97;16.67;;;;;;;10.13;47.71;95871.72;5053671;28;20444;-79
2021/03/31 04:30:52;;;;;;;23.70;15.10;;;;;;;9.63;49.11;95885.53;5054066;28;20801;-79
2021/03/31 04:33:19;;;;;;;25.60;16.87;;;;;;;9.12;50.95;95879.25;5054108;28;20755;-78
2021/03/31 04:35:46;;;;;;;22.83;14.60;;;;;;;8.79;52.52;95875.19;5053740;28;20470;-77
2021/03/31 04:38:14;;;;;;;22.97;14.57;;;;;;;8.56;53.49;95879.22;5053427;28;20545;-76
2021/03/31 04:40:54;;;;;;;19.83;13.93;;;;;;;8.32;53.76;95878.03;5053076;28;20974;-78
2021/03/31 04:43:21;;;;;;;31.67;15.40;;;;;;;8.07;54.86;95879.50;5052837;28;20442;-78
2021/03/31 04:45:47;;;;;;;32.57;19.00;;;;;;;7.78;56.19;95882.97;5053451;28;20441;-77
2021/03/31 04:48:15;;;;;;;25.70;14.90;;;;;;;7.59;56.63;95879.75;5053297;28;20446;-79
2021/03/31 04:50:42;;;;;;;21.33;11.10;;;;;;;7.59;61.27;95872.75;5054194;28;20451;-79
2021/03/31 04:53:08;;;;;;;15.30;10.20;;;;;;;7.82;68.79;95889.72;5058020;28;20848;-79
2021/03/31 04:55:35;;;;;;;16.83;10.43;;;;;;;7.97;68.43;95886.19;5057481;28;20906;-79
2021/03/31 04:58:01;;;;;;;14.63;9.43;;;;;;;8.10;67.99;95883.72;5057102;28;20819;-80
2021/03/31 05:00:28;;;;;;;13.47;9.53;;;;;;;8.05;65.31;95875.28;5057547;28;20874;-79
2021/03/31 05:02:54;;;;;;;15.40;10.70;;;;;;;7.79;58.88;95871.59;5022408;28;20479;-82
2021/03/31 05:05:21;;;;;;;13.67;9.90;;;;;;;7.56;58.71;95879.94;5057204;28;20441;-82
2021/03/31 05:07:47;;;;;;;13.03;10.23;;;;;;;7.23;59.31;95864.38;5057232;28;20451;-76
2021/03/31 05:10:14;;;;;;;16.83;9.87;;;;;;;7.11;59.50;95873.75;5039212;28;20506;-82
2021/03/31 05:12:40;;;;;;;20.57;11.00;;;;;;;7.04;62.34;95878.47;5057429;28;20460;-81
2021/03/31 05:15:08;;;;;;;18.83;12.60;;;;;;;6.95;60.46;95873.75;5057408;28;20471;-82
2021/03/31 05:17:34;;;;;;;14.27;10.20;;;;;;;6.80;61.33;95867.59;5058798;28;20965;-81
2021/03/31 05:20:02;;;;;;;18.37;12.00;;;;;;;6.78;61.57;95874.66;5057941;28;20476;-81
2021/03/31 05:22:29;;;;;;;13.37;10.97;;;;;;;6.72;61.11;95876.78;5056249;28;21653;-81
2021/03/31 05:24:55;;;;;;;20.73;10.07;;;;;;;6.71;61.91;95881.16;5057047;28;20493;-81
2021/03/31 05:27:22;;;;;;;17.90;10.60;;;;;;;6.76;62.48;95878.28;5057005;28;20438;-80
2021/03/31 05:29:49;;;;;;;20.70;11.20;;;;;;;6.79;61.96;95872.91;5057369;28;20433;-82
2021/03/31 05:32:15;;;;;;;19.17;10.50;;;;;;;6.78;61.28;95874.66;5022301;28;20437;-81
2021/03/31 05:34:42;;;;;;;10.33;8.90;;;;;;;6.87;61.64;95880.31;5022227;28;20433;-80
2021/03/31 05:37:08;;;;;;;27.20;11.30;;;;;;;6.94;61.83;95885.13;5057015;28;20456;-81
2021/03/31 05:39:36;;;;;;;20.10;13.20;;;;;;;7.04;61.01;95885.44;5056424;28;20440;-80
2021/03/31 05:42:02;;;;;;;18.07;13.67;;;;;;;7.09;61.22;95893.88;5057043;28;20539;-80
2021/03/31 05:44:30;;;;;;;21.67;16.20;;;;;;;7.13;61.14;95892.75;5038015;28;20437;-81
2021/03/31 05:46:57;;;;;;;29.80;20.20;;;;;;;6.99;62.12;95892.69;5056170;28;20544;-81
2021/03/31 05:49:24;;;;;;;38.53;24.07;;;;;;;6.91;62.27;95894.84;5056270;28;20430;-81
2021/03/31 05:51:51;;;;;;;55.30;28.53;;;;;;;6.66;63.08;95895.34;5057630;28;20499;-81
2021/03/31 05:54:17;;;;;;;34.17;20.63;;;;;;;6.61;63.67;95892.13;5057008;28;20448;-80
2021/03/31 05:56:45;;;;;;;42.50;19.37;;;;;;;6.46;63.40;95892.03;5056860;28;20441;-81
2021/03/31 05:59:14;;;;;;;60.57;21.70;;;;;;;6.47;65.04;95900.69;5021948;28;20444;-80
2021/03/31 06:01:41;;;;;;;86.50;35.00;;;;;;;6.34;65.10;95895.25;5056453;28;20469;-81
2021/03/31 06:04:07;;;;;;;72.57;34.67;;;;;;;6.46;65.06;95905.06;5056120;28;20783;-81
2021/03/31 06:06:33;;;;;;;65.97;33.10;;;;;;;6.38;65.49;95894.22;5056350;28;20849;-81
2021/03/31 06:09:00;;;;;;;50.87;27.27;;;;;;;6.43;65.80;95901.78;5056613;28;20438;-81
2021/03/31 06:11:45;;;;;;;53.47;26.37;;;;;;;6.42;65.46;95897.50;5056136;28;20514;-81
2021/03/31 06:14:12;;;;;;;51.87;26.23;;;;;;;6.54;65.82;95896.84;5055958;28;20949;-81
2021/03/31 06:16:45;;;;;;;75.87;25.33;;;;;;;6.68;65.60;95901.34;5056178;28;20438;-81
2021/03/31 06:19:19;;;;;;;46.17;25.63;;;;;;;6.82;64.87;95891.00;5055906;28;20516;-82
2021/03/31 06:21:56;;;;;;;30.70;20.53;;;;;;;6.92;63.88;95894.78;5056477;28;20473;-81
2021/03/31 06:24:25;;;;;;;38.57;20.20;;;;;;;7.14;63.88;95890.06;5055980;28;20437;-81
2021/03/31 06:26:52;;;;;;;37.37;19.93;;;;;;;7.32;63.58;95895.22;5055767;28;20440;-81
2021/03/31 06:29:19;;;;;;;31.67;18.90;;;;;;;7.42;62.74;95886.75;5055953;28;20495;-81
2021/03/31 06:31:47;;;;;;;27.17;17.07;;;;;;;7.61;61.71;95891.78;5000978;28;20521;-81
2021/03/31 06:34:17;;;;;;;31.43;16.03;;;;;;;7.77;61.85;95892.56;5036560;28;20442;-81
2021/03/31 06:36:47;;;;;;;40.20;16.10;;;;;;;7.91;61.47;95888.34;5036054;28;20632;-81
2021/03/31 06:39:19;;;;;;;32.20;16.17;;;;;;;8.05;61.24;95881.34;5036648;28;20597;-81
2021/03/31 06:42:08;;;;;;;38.30;16.03;;;;;;;8.15;60.95;95889.53;5038336;28;20486;-81
2021/03/31 06:44:51;;;;;;;28.40;14.53;;;;;;;8.21;60.86;95883.91;5037257;28;20454;-81
2021/03/31 06:47:21;;;;;;;39.43;15.60;;;;;;;8.27;61.25;95883.53;5038978;28;20457;-81
2021/03/31 06:49:51;;;;;;;32.13;16.27;;;;;;;8.38;61.10;95882.91;5038302;28;20450;-81
2021/03/31 06:52:18;;;;;;;22.17;15.50;;;;;;;8.48;61.50;95880.63;5039326;28;20453;-81
2021/03/31 06:54:46;;;;;;;24.30;15.57;;;;;;;8.54;62.01;95888.09;5054873;28;20445;-81
2021/03/31 06:57:15;;;;;;;25.07;16.17;;;;;;;8.57;61.27;95877.44;5054937;28;20814;-81
2021/03/31 06:59:43;;;;;;;28.03;15.83;;;;;;;8.67;61.35;95881.16;5055273;28;20445;-81
2021/03/31 07:02:10;;;;;;;38.93;16.73;;;;;;;8.73;61.20;95872.94;5055387;28;20491;-82
2021/03/31 07:04:36;;;;;;;25.77;15.03;;;;;;;8.80;60.65;95882.09;5054607;28;20878;-82
2021/03/31 07:07:07;;;;;;;23.67;14.10;;;;;;;8.92;60.21;95883.09;5055273;28;20468;-81
2021/03/31 07:09:34;;;;;;;30.23;16.37;;;;;;;9.03;59.95;95879.84;5055163;28;20999;-82
2021/03/31 07:12:00;;;;;;;31.80;15.10;;;;;;;9.15;60.12;95872.03;5054637;28;20436;-82
2021/03/31 07:14:29;;;;;;;35.13;14.30;;;;;;;9.31;58.79;95871.91;5054067;28;20431;-81
2021/03/31 07:16:57;;;;;;;24.13;15.00;;;;;;;9.66;57.78;95885.34;5054942;28;20529;-82
2021/03/31 07:19:26;;;;;;;19.43;13.60;;;;;;;9.92;57.09;95873.97;5019656;28;20476;-82
2021/03/31 07:21:54;;;;;;;23.40;15.13;;;;;;;10.23;57.26;95877.19;5020189;28;20483;-81
2021/03/31 07:24:20;;;;;;;23.80;14.20;;;;;;;10.61;55.99;95881.59;5054966;28;20446;-82
2021/03/31 07:26:48;;;;;;;34.20;20.43;;;;;;;10.92;55.50;95875.91;5054591;28;20434;-82
2021/03/31 07:29:18;;;;;;;51.23;29.33;;;;;;;11.28;54.20;95882.13;5054456;28;20444;-82
2021/03/31 07:31:45;;;;;;;47.90;29.93;;;;;;;11.48;53.24;95876.25;5054592;28;20433;-82
2021/03/31 07:34:18;;;;;;;60.03;29.10;;;;;;;11.93;53.90;95877.34;5054827;28;20457;-82
2021/03/31 07:36:47;;;;;;;33.10;21.30;;;;;;;12.53;49.04;95872.84;5019819;28;20441;-81
2021/03/31 07:39:16;;;;;;;54.37;24.70;;;;;;;13.06;47.98;95863.38;5054481;28;20438;-82
2021/03/31 07:41:44;;;;;;;20.83;15.00;;;;;;;13.20;43.86;95860.50;5035719;28;20564;-82
2021/03/31 07:44:16;;;;;;;48.73;28.47;;;;;;;13.64;45.19;95862.22;5054100;28;21003;-82
2021/03/31 07:46:46;;;;;;;43.37;24.83;;;;;;;13.94;43.36;95868.59;5019643;28;20446;-83
2021/03/31 07:49:14;;;;;;;45.57;24.87;;;;;;;14.26;42.98;95858.81;5054796;28;20512;-82
2021/03/31 07:51:55;;;;;;;32.03;20.80;;;;;;;14.45;41.35;95852.00;5054574;28;20868;-82
2021/03/31 07:54:21;;;;;;;24.43;16.37;;;;;;;14.45;40.92;95859.94;5054875;28;20856;-81
2021/03/31 07:56:48;;;;;;;23.10;15.70;;;;;;;14.42;40.64;95861.00;5057634;28;20452;-83
2021/03/31 07:59:16;;;;;;;20.87;14.93;;;;;;;14.52;41.31;95855.81;5055640;28;20435;-82
2021/03/31 08:01:46;;;;;;;20.77;14.90;;;;;;;14.35;40.36;95865.13;5054801;28;20926;-81
2021/03/31 08:04:15;;;;;;;19.53;14.33;;;;;;;14.21;41.05;95862.81;5055376;28;20488;-82
2021/03/31 08:06:42;;;;;;;19.70;14.07;;;;;;;14.37;40.69;95854.44;5054014;28;20811;-82
2021/03/31 08:09:11;;;;;;;18.77;15.00;;;;;;;14.03;40.94;95846.69;5055384;28;20430;-82
2021/03/31 08:14:59;;;;;;;16.33;13.07;;;;;;;13.43;41.83;95856.03;5034848;28;20453;-82
2021/03/31 08:17:26;;;;;;;19.20;12.43;;;;;;;13.68;43.58;95856.69;5035682;28;20446;-82
2021/03/31 08:19:53;;;;;;;15.70;11.83;;;;;;;13.52;41.58;95862.34;5035435;28;20437;-83
2021/03/31 08:22:42;;;;;;;16.97;12.70;;;;;;;12.87;42.93;95857.88;5035306;28;21030;-81
2021/03/31 08:25:19;;;;;;;19.03;12.70;;;;;;;12.75;43.72;95843.88;5033699;28;20430;-81
2021/03/31 08:27:59;;;;;;;17.80;11.93;;;;;;;12.54;43.98;95850.81;5017386;28;20449;-81
2021/03/31 08:30:34;;;;;;;13.63;12.00;;;;;;;12.45;44.09;95851.53;5038016;28;20430;-82
2021/03/31 08:33:00;;;;;;;15.87;12.27;;;;;;;12.30;44.46;95850.91;5021626;28;20450;-82
2021/03/31 08:35:29;;;;;;;24.63;11.90;;;;;;;12.56;44.62;95838.38;5012996;28;20462;-82
2021/03/31 08:37:55;;;;;;;19.00;11.67;;;;;;;12.74;43.68;95842.22;4979402;28;20451;-78
2021/03/31 08:40:22;;;;;;;21.07;13.50;;;;;;;12.61;44.10;95834.41;5012259;28;20545;-81
2021/03/31 08:42:50;;;;;;;23.23;13.00;;;;;;;12.34;44.56;95852.34;5012050;28;20974;-82
2021/03/31 08:45:29;;;;;;;14.77;12.23;;;;;;;12.45;44.18;95835.72;5012932;28;20450;-81
2021/03/31 08:47:57;;;;;;;23.85;14.57;;;;;;;13.97;58.01;95841.09;5011201;28;20900;-79
2021/03/31 08:50:33;;;;;;;14.70;11.77;;;;;;;14.57;48.00;95830.69;5012328;28;20635;-81
2021/03/31 08:53:03;;;;;;;20.63;11.80;;;;;;;15.15;54.23;95828.28;5012430;28;20454;-80
2021/03/31 08:55:31;;;;;;;18.23;13.30;;;;;;;14.65;39.41;95823.91;5012501;28;20564;-82
2021/03/31 08:57:58;;;;;;;14.93;10.40;;;;;;;13.77;41.31;95833.03;5028000;28;20446;-84
2021/03/31 09:00:24;;;;;;;18.83;12.63;;;;;;;13.58;41.40;95831.03;5035249;28;20483;-82
2021/03/31 09:03:02;;;;;;;18.73;13.60;;;;;;;13.42;41.82;95832.44;5034361;28;20477;-84
2021/03/31 09:05:30;;;;;;;17.07;14.10;;;;;;;13.15;42.50;95819.66;5033379;28;20941;-82
2021/03/31 09:08:00;;;;;;;22.43;12.43;;;;;;;13.27;42.49;95829.22;5033945;28;20454;-83
2021/03/31 09:10:28;;;;;;;12.23;10.40;;;;;;;13.22;42.38;95815.59;5033145;28;20451;-82
2021/03/31 09:12:56;;;;;;;18.00;13.33;;;;;;;13.01;43.49;95808.44;5033224;28;20440;-82
2021/03/31 09:15:22;;;;;;;19.43;13.70;;;;;;;12.81;43.79;95814.44;4998584;28;20934;-82
2021/03/31 09:17:56;;;;;;;16.77;12.77;;;;;;;12.94;43.98;95817.75;5033259;28;20426;-81
2021/03/31 09:20:22;;;;;;;14.83;11.50;;;;;;;12.85;43.71;95802.69;5031470;28;20462;-82
2021/03/31 09:22:50;;;;;;;22.73;12.40;;;;;;;13.19;43.46;95811.41;5033305;28;20438;-83
2021/03/31 09:25:19;;;;;;;24.13;13.03;;;;;;;13.13;43.97;95811.03;5034288;28;20438;-83
2021/03/31 09:27:46;;;;;;;19.60;13.17;;;;;;;13.12;43.18;95794.38;5033560;28;20453;-82
2021/03/31 09:30:15;;;;;;;19.27;12.73;;;;;;;13.24;43.86;95793.41;5033154;28;20427;-83
2021/03/31 09:32:48;;;;;;;20.00;14.03;;;;;;;13.00;42.67;95793.53;5033401;28;20866;-82
2021/03/31 09:35:16;;;;;;;17.40;12.27;;;;;;;13.20;43.64;95784.09;5033028;28;20503;-82
2021/03/31 09:37:46;;;;;;;20.10;12.90;;;;;;;13.60;43.28;95792.22;5036182;28;20458;-83
2021/03/31 09:40:20;;;;;;;17.17;11.63;;;;;;;13.12;42.60;95785.63;5037059;28;20537;-82
2021/03/31 09:42:47;;;;;;;15.43;12.67;;;;;;;13.02;43.40;95783.75;5036962;28;20480;-82
2021/03/31 09:45:14;;;;;;;19.37;11.97;;;;;;;12.96;43.37;95778.13;5036998;28;20450;-83
2021/03/31 09:47:41;;;;;;;15.93;12.40;;;;;;;13.15;43.53;95780.13;5036886;28;20461;-82
2021/03/31 09:50:10;;;;;;;12.57;10.90;;;;;;;13.12;43.91;95775.94;5036861;28;20540;-81
2021/03/31 09:52:38;;;;;;;17.67;12.40;;;;;;;13.01;44.08;95776.81;5036886;28;20796;-83
2021/03/31 09:55:06;;;;;;;13.97;11.60;;;;;;;13.17;42.05;95775.56;5044316;28;20434;-83
2021/03/31 09:57:36;;;;;;;18.53;11.63;;;;;;;12.96;42.98;95770.22;5056682;28;20457;-84
2021/03/31 10:00:06;;;;;;;18.10;13.23;;;;;;;13.40;43.01;95763.19;5055915;28;20434;-82
2021/03/31 10:02:33;;;;;;;16.33;11.47;;;;;;;13.35;41.89;95768.00;5020115;28;21134;-82
2021/03/31 10:05:01;;;;;;;17.37;13.23;;;;;;;13.48;42.80;95768.66;5055883;28;20451;-82
2021/03/31 10:07:28;;;;;;;14.77;11.60;;;;;;;13.48;42.42;95758.94;5055763;28;20960;-83
2021/03/31 10:09:54;;;;;;;20.43;13.37;;;;;;;13.37;41.71;95756.38;5055639;28;20450;-83
2021/03/31 10:12:25;;;;;;;24.10;13.10;;;;;;;13.52;42.62;95741.91;5055045;28;20445;-83
2021/03/31 10:14:53;;;;;;;20.37;13.00;;;;;;;13.63;42.51;95747.13;5043972;28;20948;-82
2021/03/31 10:17:21;;;;;;;14.33;10.80;;;;;;;13.37;41.96;95744.97;5055920;28;20796;-83
2021/03/31 10:19:48;;;;;;;17.37;11.70;;;;;;;13.13;41.99;95742.50;5055534;28;20459;-81
2021/03/31 10:22:15;;;;;;;14.67;11.57;;;;;;;13.21;42.71;95732.22;5054710;28;20470;-82
2021/03/31 10:24:43;;;;;;;15.67;11.10;;;;;;;13.30;42.06;95728.84;5055403;28;20868;-82
2021/03/31 10:27:11;;;;;;;16.37;10.90;;;;;;;13.06;41.71;95734.28;5055912;28;20478;-83
2021/03/31 10:29:45;;;;;;;19.47;11.97;;;;;;;12.93;43.18;95729.16;5057111;28;20450;-81
2021/03/31 10:32:15;;;;;;;14.83;11.07;;;;;;;12.83;42.10;95730.84;5056170;28;20524;-82
2021/03/31 10:34:43;;;;;;;20.80;11.70;;;;;;;12.97;43.33;95721.81;5021804;28;20473;-82
2021/03/31 10:37:16;;;;;;;15.20;11.30;;;;;;;12.98;43.06;95716.44;5056426;28;20500;-82
2021/03/31 10:51:24;;;;;;;14.13;11.00;;;;;;;12.97;42.83;95701.59;4974557;28;20833;-82
2021/03/31 10:53:54;;;;;;;17.07;13.50;;;;;;;12.78;43.98;95701.44;4974533;28;20452;-82
2021/03/31 10:56:21;;;;;;;22.53;14.73;;;;;;;12.86;43.83;95693.72;4909743;29;20490;-82
2021/03/31 10:58:47;;;;;;;20.43;13.17;;;;;;;12.95;43.43;95694.78;4955882;29;20526;-82
2021/03/31 11:01:14;;;;;;;18.67;13.20;;;;;;;13.12;42.82;95693.41;4955117;29;20524;-82
2021/03/31 11:03:41;;;;;;;20.70;13.67;;;;;;;13.25;42.81;95691.47;4955096;29;20481;-83
2021/03/31 11:06:09;;;;;;;22.50;13.83;;;;;;;13.45;42.56;95682.75;4955623;29;20526;-82
2021/03/31 11:08:35;;;;;;;18.93;12.60;;;;;;;13.41;41.24;95683.13;4924763;29;20494;-83
2021/03/31 11:11:02;;;;;;;12.93;11.60;;;;;;;13.58;41.36;95675.47;4958051;29;20442;-82
2021/03/31 11:13:28;;;;;;;12.93;10.77;;;;;;;13.82;40.69;95667.28;4926349;29;20432;-83
2021/03/31 11:15:56;;;;;;;18.83;12.93;;;;;;;14.01;40.41;95665.72;4958255;29;20446;-83
2021/03/31 11:18:28;;;;;;;15.10;12.00;;;;;;;14.13;40.14;95657.56;4957628;29;20451;-83
2021/03/31 11:26:43;;;;;;;16.37;11.03;;;;;;;14.12;40.28;95655.88;4867249;29;20438;-83
2021/03/31 11:29:10;;;;;;;15.50;11.30;;;;;;;14.18;40.36;95647.47;4954550;28;20525;-82
2021/03/31 11:31:36;;;;;;;17.73;12.23;;;;;;;14.17;40.83;95645.78;4907511;29;20492;-82
2021/03/31 11:34:02;;;;;;;15.33;10.37;;;;;;;14.25;40.37;95634.56;4955903;28;20443;-82
2021/03/31 11:36:33;;;;;;;13.70;10.80;;;;;;;14.13;39.41;95643.53;4963949;29;20448;-81
2021/03/31 11:38:59;;;;;;;17.23;10.60;;;;;;;13.89;40.70;95630.69;4966154;28;20541;-80
2021/03/31 11:41:26;;;;;;;13.10;10.13;;;;;;;13.85;39.28;95627.44;4959050;28;21676;-80
2021/03/31 11:43:52;;;;;;;12.30;9.27;;;;;;;13.77;39.63;95626.44;4954375;29;20459;-82
2021/03/31 11:46:19;;;;;;;15.87;12.37;;;;;;;13.60;40.42;95619.97;4954578;29;20494;-78
2021/03/31 11:48:45;;;;;;;14.40;9.53;;;;;;;13.53;40.01;95617.00;4954378;29;20448;-81
2021/03/31 11:51:11;;;;;;;15.30;10.03;;;;;;;13.67;39.73;95612.38;4955399;29;20450;-81
2021/03/31 11:53:39;;;;;;;14.47;10.20;;;;;;;13.71;40.25;95597.94;4956011;28;20502;-82
2021/03/31 11:56:06;;;;;;;11.40;9.00;;;;;;;13.61;39.14;95606.66;4992502;28;20456;-81
2021/03/31 11:58:32;;;;;;;12.77;9.30;;;;;;;13.58;38.51;95606.91;4993767;28;20445;-82
2021/03/31 12:00:59;;;;;;;13.90;9.63;;;;;;;13.55;38.47;95593.97;4993380;28;20585;-82
2021/03/31 12:03:25;;;;;;;13.20;10.63;;;;;;;13.67;38.20;95588.63;5017291;28;20996;-82
2021/03/31 12:05:52;;;;;;;14.13;9.50;;;;;;;13.67;38.00;95601.81;5035887;28;20926;-82